Time;durP1;ratioP1;P1;durP2;ratioP2;P2;SDS_P1;SDS_P2;PMS_P1;PMS_P2;Temp;Humidity;BMP_temperature;BMP_pressure;BME280_temperature;BME280_humidity;BME280_pressure;Samples;Min_cycle;Max_cycle;Signal;HPM_P1;HPM_P2
2023/06/11 00:02:32;;;;;;;24.45;8.10;;;;;;;21.02;64.71;99841.84;123642;1102;104309;-77
2023/06/11 00:05:07;;;;;;;22.67;8.47;;;;;;;21.03;63.76;99832.91;123977;1102;104280;-77
2023/06/11 00:07:39;;;;;;;21.30;8.83;;;;;;;21.05;63.37;99833.78;123500;1102;107090;-76
2023/06/11 00:10:11;;;;;;;21.90;9.10;;;;;;;21.06;63.81;99824.85;123513;1102;104278;-76
2023/06/11 00:12:42;;;;;;;20.13;8.67;;;;;;;21.07;64.83;99823.95;123534;1100;104242;-77
2023/06/11 00:15:14;;;;;;;20.37;8.67;;;;;;;21.08;64.08;99827.49;123554;1101;104345;-77
2023/06/11 00:17:45;;;;;;;25.40;8.87;;;;;;;21.08;64.73;99828.36;123411;1102;104438;-77
2023/06/11 00:20:17;;;;;;;21.60;8.17;;;;;;;21.11;64.51;99832.77;123585;1102;104281;-77
2023/06/11 00:22:48;;;;;;;22.17;8.83;;;;;;;21.11;64.43;99830.97;123600;1102;104287;-77
2023/06/11 00:25:21;;;;;;;24.27;8.77;;;;;;;21.12;64.50;99835.41;123546;1102;104815;-76
2023/06/11 00:27:52;;;;;;;22.77;8.67;;;;;;;21.14;64.48;99838.92;123498;1102;104281;-76
2023/06/11 00:30:23;;;;;;;19.97;8.10;;;;;;;21.15;64.43;99830.02;123431;1102;104257;-77
2023/06/11 00:32:54;;;;;;;23.47;8.83;;;;;;;21.15;64.67;99832.69;123495;1101;104319;-77
2023/06/11 00:35:26;;;;;;;22.43;8.60;;;;;;;21.12;64.35;99839.88;123517;1102;104258;-79
2023/06/11 00:37:57;;;;;;;20.73;8.70;;;;;;;21.07;65.31;99831.95;123594;1102;104361;-77
2023/06/11 00:40:29;;;;;;;24.93;9.70;;;;;;;21.00;64.90;99823.20;123505;1102;104342;-76
2023/06/11 00:43:02;;;;;;;22.10;9.30;;;;;;;20.95;65.16;99833.04;123491;1102;104361;-76
2023/06/11 00:45:34;;;;;;;;;;;;;;;20.87;64.15;99828.77;123448;1101;104238;-76
2023/06/11 00:48:07;;;;;;;20.83;9.53;;;;;;;20.86;65.02;99837.66;123605;1102;104230;-76
2023/06/11 00:50:45;;;;;;;24.23;9.60;;;;;;;20.88;65.14;99833.17;123413;1102;104267;-76
2023/06/11 00:53:17;;;;;;;18.10;8.70;;;;;;;20.89;65.98;99825.15;123685;1102;104274;-76
2023/06/11 00:55:48;;;;;;;20.93;8.97;;;;;;;20.90;65.45;99826.05;123588;1101;104300;-76
2023/06/11 00:58:21;;;;;;;20.30;8.20;;;;;;;20.91;65.70;99819.79;123544;1102;104367;-77
2023/06/11 01:00:57;;;;;;;21.87;9.25;;;;;;;20.93;65.44;99823.33;123620;1102;104255;-76
2023/06/11 01:03:33;;;;;;;23.13;9.13;;;;;;;20.95;66.72;99825.05;123466;1102;104272;-76
2023/06/11 01:06:11;;;;;;;25.00;9.70;;;;;;;20.97;66.70;99827.69;125288;1101;104274;-76
2023/06/11 01:08:43;;;;;;;20.33;9.30;;;;;;;20.98;66.72;99824.12;123803;1101;118588;-76
2023/06/11 01:11:22;;;;;;;21.87;8.98;;;;;;;20.99;66.61;99836.56;123601;1102;104374;-76
2023/06/11 01:13:55;;;;;;;22.50;9.00;;;;;;;20.96;66.69;99818.81;123658;1100;104227;-76
2023/06/11 01:16:34;;;;;;;19.77;8.27;;;;;;;20.98;65.72;99826.78;123473;1102;104335;-76
2023/06/11 01:19:22;;;;;;;21.67;8.43;;;;;;;20.94;66.02;99830.41;123593;1102;104313;-76
2023/06/11 01:21:59;;;;;;;17.40;8.60;;;;;;;20.85;65.80;99830.56;123380;1102;104392;-76
2023/06/11 01:24:46;;;;;;;19.57;8.23;;;;;;;20.79;66.34;99836.90;123573;1102;104360;-76
2023/06/11 01:27:23;;;;;;;24.80;8.60;;;;;;;20.72;66.04;99830.77;123386;1102;104281;-76
2023/06/11 01:29:57;;;;;;;19.63;8.33;;;;;;;20.64;66.04;99832.66;123378;1102;104322;-75
2023/06/11 01:32:30;;;;;;;22.10;8.33;;;;;;;20.53;66.18;99838.16;123552;1102;104258;-76
2023/06/11 01:35:06;;;;;;;19.97;8.73;;;;;;;20.42;66.50;99838.31;123560;1102;104386;-76
2023/06/11 01:37:55;;;;;;;21.33;8.07;;;;;;;20.33;65.62;99833.13;123448;1102;104178;-77
2023/06/11 01:40:30;;;;;;;17.77;8.13;;;;;;;20.24;65.81;99823.50;123505;1102;104360;-77
2023/06/11 01:43:03;;;;;;;20.82;8.30;;;;;;;20.17;66.20;99820.95;123405;1102;104242;-77
2023/06/11 01:45:36;;;;;;;20.10;8.53;;;;;;;20.13;66.65;99816.56;123478;1102;104376;-77
2023/06/11 01:48:08;;;;;;;23.00;8.55;;;;;;;20.05;66.19;99814.00;123479;1102;104229;-76
2023/06/11 01:50:41;;;;;;;18.30;7.97;;;;;;;20.00;66.47;99826.52;123437;1102;104257;-77
2023/06/11 01:53:12;;;;;;;21.63;8.63;;;;;;;19.93;67.04;99812.41;123406;1102;104620;-76
2023/06/11 01:55:45;;;;;;;18.07;8.47;;;;;;;19.89;66.97;99818.67;123524;1100;104341;-76
2023/06/11 01:58:17;;;;;;;21.40;8.73;;;;;;;19.87;66.23;99813.36;123317;1102;104466;-76
2023/06/11 02:00:48;;;;;;;19.27;8.13;;;;;;;19.89;66.25;99808.89;123349;1102;104305;-77
2023/06/11 02:03:19;;;;;;;21.70;8.40;;;;;;;19.91;66.90;99820.42;123382;1102;104730;-77
2023/06/11 02:05:51;;;;;;;20.40;8.27;;;;;;;19.91;67.49;99822.18;123442;1102;104301;-76
2023/06/11 02:08:22;;;;;;;22.20;8.10;;;;;;;19.92;66.68;99814.17;123294;1102;104331;-76
2023/06/11 02:10:54;;;;;;;35.17;11.13;;;;;;;19.96;66.63;99820.36;123425;1102;104274;-77
2023/06/11 02:13:30;;;;;;;19.13;7.97;;;;;;;19.98;66.71;99825.66;123392;1102;104274;-76
2023/06/11 02:16:02;;;;;;;19.33;8.90;;;;;;;20.02;66.92;99828.23;123356;1102;104274;-76
2023/06/11 02:18:33;;;;;;;19.90;8.03;;;;;;;20.05;66.88;99828.19;123308;1102;104422;-77
2023/06/11 02:21:04;;;;;;;17.73;7.90;;;;;;;20.09;66.66;99827.26;123300;1102;104309;-76
2023/06/11 02:23:36;;;;;;;20.70;7.70;;;;;;;20.13;67.10;99829.88;123396;1102;104278;-77
2023/06/11 02:26:07;;;;;;;18.40;8.57;;;;;;;20.11;67.41;99836.09;123500;1102;104290;-77
2023/06/11 02:28:38;;;;;;;21.13;8.20;;;;;;;20.14;66.98;99840.52;123246;1102;104434;-76
2023/06/11 02:31:10;;;;;;;17.83;7.03;;;;;;;20.14;67.69;99847.63;123389;1102;104450;-76
2023/06/11 02:33:41;;;;;;;18.10;6.97;;;;;;;20.12;66.78;99842.33;123361;1102;104335;-76
2023/06/11 02:36:12;;;;;;;19.93;7.87;;;;;;;20.11;66.72;99848.55;123471;1102;104278;-77
2023/06/11 02:38:43;;;;;;;19.23;8.30;;;;;;;20.06;66.53;99850.39;123384;1102;104274;-77
2023/06/11 02:41:15;;;;;;;19.27;8.47;;;;;;;19.98;66.70;99857.62;123303;1100;104255;-76
2023/06/11 02:43:46;;;;;;;19.83;8.17;;;;;;;19.94;67.06;99851.43;123459;1102;104249;-76
2023/06/11 02:46:18;;;;;;;17.23;6.67;;;;;;;19.89;67.10;99853.28;123412;1102;104284;-76
2023/06/11 02:48:49;;;;;;;18.70;7.07;;;;;;;19.88;67.34;99859.49;123474;1102;104348;-77
2023/06/11 02:51:21;;;;;;;19.90;7.37;;;;;;;19.91;66.81;99862.12;123365;1102;104501;-76
2023/06/11 02:53:52;;;;;;;20.03;7.17;;;;;;;19.95;67.31;99854.99;123306;1102;104435;-77
2023/06/11 02:56:23;;;;;;;16.27;6.70;;;;;;;19.96;67.18;99865.63;123413;1102;104373;-77
2023/06/11 02:58:54;;;;;;;16.77;7.00;;;;;;;19.89;67.02;99858.61;123396;1102;104280;-78
2023/06/11 03:01:25;;;;;;;17.90;7.83;;;;;;;19.82;67.63;99867.55;123660;1102;104730;-77
2023/06/11 03:03:57;;;;;;;18.77;6.87;;;;;;;19.75;67.58;99862.27;123452;1102;104810;-80
2023/06/11 03:06:30;;;;;;;16.95;7.17;;;;;;;19.71;67.61;99875.63;123384;1101;104284;-77
2023/06/11 03:09:01;;;;;;;18.70;7.20;;;;;;;19.67;67.37;99871.27;123397;1101;104393;-76
2023/06/11 03:11:32;;;;;;;18.30;8.15;;;;;;;19.68;67.12;99871.25;123421;1102;111517;-76
2023/06/11 03:14:04;;;;;;;16.65;7.20;;;;;;;19.67;67.75;99869.47;123475;1102;104437;-77
2023/06/11 03:16:35;;;;;;;18.13;6.80;;;;;;;19.67;67.64;99873.93;123349;1102;104369;-77
2023/06/11 03:19:07;;;;;;;17.60;7.35;;;;;;;19.65;67.93;99876.61;123406;1102;104229;-77
2023/06/11 03:21:38;;;;;;;15.20;7.57;;;;;;;19.65;67.85;99871.28;123628;1100;104254;-78
2023/06/11 03:24:09;;;;;;;19.03;7.60;;;;;;;19.67;67.88;99877.46;123399;1102;104262;-77
2023/06/11 03:26:41;;;;;;;16.50;7.00;;;;;;;19.69;67.79;99872.12;123438;1102;104210;-77
2023/06/11 03:29:12;;;;;;;16.83;7.60;;;;;;;19.70;68.17;99873.89;123424;1100;104325;-76
2023/06/11 03:31:49;;;;;;;17.60;7.03;;;;;;;19.70;68.76;99877.42;123352;1102;104408;-77
2023/06/11 03:34:21;;;;;;;16.87;7.00;;;;;;;19.72;68.40;99872.95;123475;1102;104254;-77
2023/06/11 03:36:53;;;;;;;17.50;6.77;;;;;;;19.73;68.81;99880.05;123433;1102;104682;-77
2023/06/11 03:39:24;;;;;;;15.17;6.63;;;;;;;19.77;68.62;99882.71;123337;1102;104233;-77
2023/06/11 03:42:00;;;;;;;15.43;6.50;;;;;;;19.77;68.75;99877.39;123517;1102;104323;-77
2023/06/11 03:44:32;;;;;;;15.53;7.10;;;;;;;19.81;68.88;99881.78;123471;1102;104402;-76
2023/06/11 03:47:04;;;;;;;11.73;6.10;;;;;;;19.86;68.67;99878.15;123534;1102;104274;-77
2023/06/11 03:49:35;;;;;;;17.97;7.00;;;;;;;19.91;68.97;99868.34;123394;1102;104345;-77
2023/06/11 03:52:08;;;;;;;11.47;6.10;;;;;;;19.96;69.41;99878.94;123309;1102;104261;-76
2023/06/11 03:54:40;;;;;;;11.28;6.03;;;;;;;19.96;68.51;99876.27;123424;1102;104259;-77
2023/06/11 03:57:12;;;;;;;14.85;6.50;;;;;;;19.99;68.88;99886.89;123433;1101;104280;-76
2023/06/11 03:59:43;;;;;;;12.45;6.35;;;;;;;20.01;68.63;99889.53;123365;1102;104277;-75
2023/06/11 04:02:15;;;;;;;12.97;6.20;;;;;;;20.02;68.87;99892.14;123386;1102;104325;-76
2023/06/11 04:04:46;;;;;;;16.03;6.17;;;;;;;20.03;69.48;99899.24;123385;1102;104229;-76
2023/06/11 04:07:17;;;;;;;16.10;6.73;;;;;;;20.06;68.91;99893.00;123416;1102;104332;-76
2023/06/11 04:09:49;;;;;;;12.30;6.70;;;;;;;20.08;69.33;99897.39;123306;1102;104338;-76
2023/06/11 04:12:20;;;;;;;14.95;6.45;;;;;;;20.09;69.04;99899.16;123306;1102;104251;-77
2023/06/11 04:14:51;;;;;;;12.27;6.77;;;;;;;20.08;68.67;99892.06;123382;1102;104354;-77
2023/06/11 04:17:22;;;;;;;14.47;6.67;;;;;;;20.10;69.18;99900.03;123440;1102;104774;-76
2023/06/11 04:19:54;;;;;;;16.00;6.10;;;;;;;20.14;68.98;99903.56;123280;1102;104225;-76
2023/06/11 04:22:25;;;;;;;16.07;6.63;;;;;;;20.16;69.06;99909.73;123207;1102;104309;-76
2023/06/11 04:24:56;;;;;;;13.37;6.40;;;;;;;20.15;69.28;99914.20;123404;1102;104354;-75
2023/06/11 04:27:33;;;;;;;17.83;6.63;;;;;;;20.18;68.73;99906.16;123211;1102;104348;-75
2023/06/11 04:30:09;;;;;;;17.67;6.70;;;;;;;20.22;69.25;99909.66;123398;1102;104265;-76
2023/06/11 04:32:41;;;;;;;11.80;6.00;;;;;;;20.28;69.18;99912.24;123372;1102;104335;-76
2023/06/11 04:35:13;;;;;;;13.83;6.67;;;;;;;20.33;69.04;99902.39;123274;1103;104437;-75
2023/06/11 04:37:45;;;;;;;14.47;6.90;;;;;;;20.40;69.40;99903.22;123289;1102;104239;-76
2023/06/11 04:40:24;;;;;;;11.00;6.47;;;;;;;20.48;68.50;99907.51;123316;1102;104323;-77
2023/06/11 04:42:56;;;;;;;18.23;6.90;;;;;;;20.52;69.11;99908.38;123380;1102;105602;-76
2023/06/11 04:45:28;;;;;;;14.33;7.00;;;;;;;20.55;68.81;99918.95;123420;1102;104357;-75
2023/06/11 04:48:03;;;;;;;15.73;6.60;;;;;;;20.60;68.33;99908.23;123513;1102;104230;-75
2023/06/11 04:50:37;;;;;;;12.40;6.40;;;;;;;20.68;69.10;99911.71;123397;1102;104271;-74
2023/06/11 04:53:07;;;;;;;;;;;;;;;20.67;68.03;99912.60;123448;1102;105504;-75
2023/06/11 04:55:39;;;;;;;17.20;7.07;;;;;;;20.69;69.17;99913.45;123585;1102;104399;-75
2023/06/11 04:58:11;;;;;;;14.30;6.40;;;;;;;20.78;68.43;99920.44;123345;1102;104385;-75
2023/06/11 05:00:44;;;;;;;15.83;6.87;;;;;;;20.88;68.33;99927.41;123258;1102;104376;-75
2023/06/11 05:03:17;;;;;;;13.18;6.75;;;;;;;20.91;67.76;99931.78;123199;1102;104655;-73
2023/06/11 05:05:50;;;;;;;15.28;6.55;;;;;;;20.93;68.23;99932.66;123234;1102;104232;-76
2023/06/11 05:08:24;;;;;;;16.73;7.20;;;;;;;20.90;68.12;99930.92;123375;1102;104301;-75
2023/06/11 05:10:57;;;;;;;14.73;6.80;;;;;;;20.94;68.92;99934.41;123387;1102;104358;-75
2023/06/11 05:13:29;;;;;;;15.20;6.60;;;;;;;20.94;68.88;99940.64;123293;1102;104350;-76
2023/06/11 05:16:05;;;;;;;12.30;6.40;;;;;;;20.94;67.77;99943.31;123398;1102;104319;-75
2023/06/11 05:18:37;;;;;;;13.72;6.70;;;;;;;20.98;68.32;99944.12;123381;1102;104350;-75
2023/06/11 05:21:12;;;;;;;12.57;6.70;;;;;;;20.99;68.38;99946.77;123304;1102;104354;-76
2023/06/11 05:23:43;;;;;;;11.63;6.15;;;;;;;21.03;67.11;99958.27;123252;1102;104319;-74
2023/06/11 05:26:18;;;;;;;16.10;6.60;;;;;;;21.11;68.04;99953.67;123283;1102;104262;-75
2023/06/11 05:28:51;;;;;;;14.43;6.30;;;;;;;21.23;67.73;99954.41;123230;1102;104331;-75
2023/06/11 05:31:23;;;;;;;16.07;6.40;;;;;;;21.33;67.33;99946.22;123199;1102;104287;-75
2023/06/11 05:33:55;;;;;;;12.13;6.28;;;;;;;21.44;67.90;99956.70;123275;1102;104275;-76
2023/06/11 05:36:27;;;;;;;14.93;6.73;;;;;;;21.51;66.63;99950.37;123285;1102;104310;-76
2023/06/11 05:38:59;;;;;;;14.43;6.37;;;;;;;21.66;67.37;99959.00;123355;1101;104351;-76
2023/06/11 05:41:30;;;;;;;11.70;6.50;;;;;;;21.79;67.19;99955.20;123293;1102;104330;-75
2023/06/11 05:44:02;;;;;;;16.20;6.70;;;;;;;21.90;66.91;99957.66;123260;1102;104335;-76
2023/06/11 05:46:33;;;;;;;12.83;6.17;;;;;;;22.03;66.23;99958.30;123266;1102;104255;-74
2023/06/11 05:49:06;;;;;;;15.70;6.53;;;;;;;22.15;66.63;99950.03;123252;1101;104366;-76
2023/06/11 05:51:37;;;;;;;14.27;6.43;;;;;;;22.29;65.59;99949.74;123274;1102;104408;-75
2023/06/11 05:54:09;;;;;;;12.80;6.37;;;;;;;22.32;65.37;99954.19;123427;1102;104211;-75
2023/06/11 05:56:44;;;;;;;14.43;6.50;;;;;;;22.32;65.33;99956.86;123315;1102;104297;-75
2023/06/11 05:59:15;;;;;;;18.77;6.60;;;;;;;22.32;65.02;99948.84;123176;1102;104313;-75
2023/06/11 06:01:47;;;;;;;17.07;6.90;;;;;;;22.36;64.74;99961.20;123394;1102;104344;-76
2023/06/11 06:04:19;;;;;;;;;;;;;;;22.34;64.60;99953.22;123223;1102;104329;-75
2023/06/11 06:06:50;;;;;;;12.23;6.17;;;;;;;22.31;64.57;99950.61;123307;1102;104280;-76
2023/06/11 06:09:22;;;;;;;13.20;6.87;;;;;;;22.29;64.55;99951.55;123202;1102;104331;-75
2023/06/11 06:11:53;;;;;;;13.00;6.77;;;;;;;22.33;64.41;99955.92;123298;1102;104313;-74
2023/06/11 06:14:26;;;;;;;14.77;6.47;;;;;;;22.39;64.24;99958.47;123112;1102;104312;-74
2023/06/11 06:16:58;;;;;;;17.13;6.57;;;;;;;22.44;64.29;99948.58;123150;1101;104402;-74
2023/06/11 06:19:32;;;;;;;13.10;6.50;;;;;;;22.41;63.96;99957.53;123190;1102;104323;-75
2023/06/11 06:22:03;;;;;;;12.10;6.40;;;;;;;22.36;63.74;99956.77;123257;1102;104270;-75
2023/06/11 06:24:35;;;;;;;16.73;6.77;;;;;;;22.28;63.46;99953.31;123281;1102;104357;-75
2023/06/11 06:27:08;;;;;;;13.60;6.17;;;;;;;22.26;63.97;99950.67;123279;1102;104350;-75
2023/06/11 06:29:40;;;;;;;12.40;6.10;;;;;;;22.30;63.68;99950.61;123289;1102;104326;-75
2023/06/11 06:32:12;;;;;;;12.73;6.63;;;;;;;22.30;63.46;99955.95;123217;1102;104274;-77
2023/06/11 06:34:44;;;;;;;12.17;6.07;;;;;;;22.37;63.61;99955.83;123242;1102;104350;-76
2023/06/11 06:37:16;;;;;;;12.87;6.37;;;;;;;22.44;63.72;99949.45;123369;1102;104348;-76
2023/06/11 06:39:49;;;;;;;12.37;6.40;;;;;;;22.50;63.36;99956.47;123433;1102;104271;-75
2023/06/11 06:42:20;;;;;;;14.80;5.90;;;;;;;22.57;62.92;99955.39;123278;1102;104368;-76
2023/06/11 06:44:53;;;;;;;11.63;6.23;;;;;;;22.74;63.39;99944.31;123271;1099;104495;-76
2023/06/11 06:47:24;;;;;;;12.43;6.00;;;;;;;22.91;63.26;99937.70;123249;1102;104318;-76
2023/06/11 06:49:56;;;;;;;15.63;6.20;;;;;;;23.14;63.45;99939.85;123367;1102;104272;-76
2023/06/11 06:52:28;;;;;;;10.33;5.60;;;;;;;23.34;62.77;99936.64;123279;1102;104312;-75
2023/06/11 06:54:59;;;;;;;14.57;6.60;;;;;;;23.50;62.63;99939.81;123115;1102;104302;-76
2023/06/11 06:57:31;;;;;;;12.27;6.47;;;;;;;23.69;62.14;99941.06;123342;1102;104226;-77
2023/06/11 07:00:04;;;;;;;13.10;5.73;;;;;;;23.92;61.89;99936.91;123351;1102;104252;-76
2023/06/11 07:02:36;;;;;;;12.97;6.30;;;;;;;24.11;61.90;99929.22;123339;1102;104277;-75
2023/06/11 07:05:08;;;;;;;13.50;6.50;;;;;;;24.25;61.23;99936.85;123312;1102;104210;-76
2023/06/11 07:07:40;;;;;;;14.25;6.05;;;;;;;24.38;60.59;99935.55;123220;1102;104326;-76
2023/06/11 07:10:12;;;;;;;10.73;5.50;;;;;;;24.56;60.42;99943.97;123280;1102;104401;-77
2023/06/11 07:12:44;;;;;;;11.38;5.50;;;;;;;24.63;59.63;99937.51;123263;1102;104355;-77
2023/06/11 07:15:15;;;;;;;11.90;5.60;;;;;;;24.80;59.40;99941.47;123338;1102;104246;-75
2023/06/11 07:17:48;;;;;;;14.67;5.80;;;;;;;25.07;59.05;99937.00;123294;1102;104278;-76
2023/06/11 07:20:19;;;;;;;11.27;5.43;;;;;;;25.25;58.72;99935.52;123193;1102;104488;-76
2023/06/11 07:22:54;;;;;;;11.00;5.50;;;;;;;25.30;58.31;99934.44;123292;1102;104351;-76
2023/06/11 07:25:28;;;;;;;12.45;5.60;;;;;;;25.38;58.20;99939.55;123200;1102;104364;-77
2023/06/11 07:28:00;;;;;;;12.00;5.37;;;;;;;25.59;58.05;99934.39;123126;1102;104291;-77
2023/06/11 07:30:33;;;;;;;13.13;5.67;;;;;;;25.68;57.34;99936.75;123505;1102;104338;-76
2023/06/11 07:33:05;;;;;;;11.90;5.30;;;;;;;25.75;57.49;99927.52;123560;1101;104408;-77
2023/06/11 07:35:38;;;;;;;11.00;5.30;;;;;;;25.64;55.78;99932.41;123258;1102;105437;-77
2023/06/11 07:38:09;;;;;;;8.60;5.17;;;;;;;25.68;56.54;99928.69;123277;1102;104255;-78
2023/06/11 07:40:40;;;;;;;9.05;5.10;;;;;;;25.97;55.79;99935.70;123323;1102;104367;-77
2023/06/11 07:43:12;;;;;;;12.93;5.40;;;;;;;26.17;55.48;99932.27;123190;1102;104364;-76
2023/06/11 07:45:44;;;;;;;11.27;5.20;;;;;;;26.27;55.30;99926.53;123292;1102;104377;-77
2023/06/11 07:48:15;;;;;;;10.45;5.00;;;;;;;26.31;55.54;99928.19;123203;1102;104341;-76
2023/06/11 07:50:49;;;;;;;8.63;5.10;;;;;;;26.25;54.30;99923.04;123295;1102;104248;-77
2023/06/11 07:53:21;;;;;;;12.90;5.60;;;;;;;26.44;54.48;99928.58;123333;1102;104332;-78
2023/06/11 07:55:56;;;;;;;11.17;5.10;;;;;;;26.53;54.09;99923.70;123225;1102;104297;-75
2023/06/11 07:58:28;;;;;;;11.67;5.13;;;;;;;26.67;53.60;99925.02;123221;1102;108299;-77
2023/06/11 08:00:59;;;;;;;8.03;5.20;;;;;;;26.76;53.18;99927.34;123172;1102;104172;-77
2023/06/11 08:03:30;;;;;;;11.03;5.20;;;;;;;26.98;53.55;99940.79;123372;1102;104267;-76
2023/06/11 08:06:01;;;;;;;10.93;5.03;;;;;;;27.05;52.74;99944.09;123473;1102;104389;-77
2023/06/11 08:08:33;;;;;;;11.03;5.40;;;;;;;27.01;53.16;99942.48;123404;1102;118349;-77
2023/06/11 08:11:04;;;;;;;10.37;5.30;;;;;;;27.02;52.25;99942.42;123288;1101;104294;-76
2023/06/11 08:13:35;;;;;;;9.40;5.20;;;;;;;27.13;51.99;99933.91;123388;1102;104826;-78
2023/06/11 08:16:07;;;;;;;10.47;5.17;;;;;;;27.29;51.81;99927.88;123292;1102;104252;-77
2023/06/11 08:18:38;;;;;;;10.57;4.70;;;;;;;27.44;51.67;99932.61;123293;1102;104203;-76
2023/06/11 08:21:09;;;;;;;10.35;5.20;;;;;;;27.63;51.09;99921.92;123210;1102;104249;-76
2023/06/11 08:23:41;;;;;;;11.33;5.83;;;;;;;27.85;51.01;99927.22;123318;1102;104307;-77
2023/06/11 08:26:14;;;;;;;10.55;4.85;;;;;;;28.05;50.76;99917.36;123285;1102;104310;-76
2023/06/11 08:28:44;;;;;;;;;;;;;;;27.94;49.37;99921.42;123251;1102;104651;-77
2023/06/11 08:31:15;;;;;;;11.30;5.30;;;;;;;27.57;49.43;99922.19;123320;1102;104683;-74
2023/06/11 08:33:47;;;;;;;11.70;5.63;;;;;;;27.64;49.92;99912.88;123253;1102;104351;-74
2023/06/11 08:36:18;;;;;;;9.07;5.00;;;;;;;27.82;49.49;99915.72;123153;1102;104493;-74
2023/06/11 08:38:49;;;;;;;10.20;5.10;;;;;;;28.05;49.36;99906.58;123231;1102;104285;-76
2023/06/11 08:41:22;;;;;;;9.80;5.00;;;;;;;28.22;49.28;99909.39;123198;1102;104299;-76
2023/06/11 08:43:52;;;;;;;;;;;;;;;28.31;48.17;99908.95;123305;1102;104293;-74
2023/06/11 08:46:25;;;;;;;10.97;5.10;;;;;;;28.38;48.72;99908.67;123133;1100;104301;-75
2023/06/11 08:49:05;;;;;;;11.57;4.90;;;;;;;28.51;48.38;99916.08;123104;1102;105210;-75
2023/06/11 08:51:38;;;;;;;10.27;5.10;;;;;;;28.74;47.74;99914.12;123194;1102;104363;-75
2023/06/11 08:54:10;;;;;;;9.77;4.80;;;;;;;28.92;47.17;99911.46;123244;1101;104245;-75
2023/06/11 08:56:42;;;;;;;11.40;5.03;;;;;;;29.05;47.12;99905.38;123226;1102;104254;-75
2023/06/11 08:59:13;;;;;;;10.63;4.97;;;;;;;29.16;46.91;99896.72;123234;1101;105527;-75
2023/06/11 09:01:50;;;;;;;10.57;4.80;;;;;;;29.20;47.18;99897.47;123278;1102;104434;-74
2023/06/11 09:04:21;;;;;;;10.63;4.90;;;;;;;29.19;46.73;99898.41;123191;1102;104348;-75
2023/06/11 09:06:57;;;;;;;11.33;4.90;;;;;;;29.15;46.21;99896.80;123276;1102;104248;-77
2023/06/11 09:09:28;;;;;;;7.73;4.60;;;;;;;28.95;46.14;99900.51;123214;1100;104283;-74
2023/06/11 09:12:05;;;;;;;8.13;4.73;;;;;;;28.88;46.80;99896.39;123315;1102;104264;-77
2023/06/11 09:14:37;;;;;;;11.57;5.07;;;;;;;29.02;46.36;99888.45;123326;1102;104405;-75
2023/06/11 09:17:16;;;;;;;9.80;4.83;;;;;;;28.99;45.90;99896.72;123293;1102;104820;-75
2023/06/11 09:19:47;;;;;;;10.00;5.07;;;;;;;28.80;45.70;99896.77;123343;1102;104233;-74
2023/06/11 09:22:27;;;;;;;11.00;4.87;;;;;;;28.62;46.48;99896.70;123282;1102;104285;-73
2023/06/11 09:25:02;;;;;;;10.33;4.90;;;;;;;28.56;45.45;99898.80;123365;1102;104333;-75
2023/06/11 09:27:34;;;;;;;7.63;5.03;;;;;;;28.58;45.44;99888.79;123204;1102;104361;-75
2023/06/11 09:30:17;;;;;;;9.17;4.83;;;;;;;28.58;44.87;99891.48;123605;1102;104195;-75
2023/06/11 09:32:49;;;;;;;10.13;4.80;;;;;;;28.76;45.10;99885.22;123422;1102;104722;-77
2023/06/11 09:35:21;;;;;;;10.50;4.90;;;;;;;29.03;45.16;99885.68;123321;1102;104252;-76
2023/06/11 09:37:53;;;;;;;8.93;4.73;;;;;;;29.09;44.43;99883.61;123178;1102;104357;-75
2023/06/11 09:40:25;;;;;;;9.40;5.07;;;;;;;29.11;44.10;99882.59;123249;1102;108040;-74
2023/06/11 09:42:56;;;;;;;9.53;4.53;;;;;;;29.06;44.05;99884.63;123317;1102;104297;-76
2023/06/11 09:45:27;;;;;;;7.57;4.30;;;;;;;28.89;43.67;99877.41;123327;1102;104290;-76
2023/06/11 09:47:59;;;;;;;10.83;4.77;;;;;;;28.78;43.70;99874.34;123259;1102;104354;-75
2023/06/11 09:50:33;;;;;;;10.40;4.43;;;;;;;28.86;43.56;99872.16;123375;1102;104280;-76
2023/06/11 09:53:05;;;;;;;8.30;4.35;;;;;;;28.94;43.96;99867.23;123265;1102;104370;-75
2023/06/11 09:55:37;;;;;;;13.10;4.67;;;;;;;28.97;43.37;99869.79;123373;1102;104281;-76
2023/06/11 09:58:10;;;;;;;9.20;4.87;;;;;;;28.89;42.91;99865.71;123307;1102;104351;-76
2023/06/11 10:00:41;;;;;;;8.60;4.50;;;;;;;28.90;43.20;99864.77;123395;1102;104249;-76
2023/06/11 10:03:12;;;;;;;12.10;4.90;;;;;;;28.84;42.55;99864.14;123367;1102;104486;-77
2023/06/11 10:05:44;;;;;;;10.57;4.90;;;;;;;28.91;42.90;99863.83;123455;1102;104296;-75
2023/06/11 10:08:20;;;;;;;9.57;4.87;;;;;;;28.87;42.91;99863.09;123321;1101;104277;-75
2023/06/11 10:10:55;;;;;;;7.80;4.70;;;;;;;29.01;42.85;99870.49;123317;1102;104338;-76
2023/06/11 10:13:34;;;;;;;11.73;5.27;;;;;;;29.07;42.66;99866.62;123319;1102;104716;-75
2023/06/11 10:16:08;;;;;;;8.60;4.83;;;;;;;28.96;42.71;99870.73;123330;1101;104321;-74
2023/06/11 10:18:39;;;;;;;9.23;5.67;;;;;;;28.97;43.02;99877.02;123150;1102;104251;-75
2023/06/11 10:21:10;;;;;;;10.80;5.23;;;;;;;29.03;42.76;99869.48;123243;1102;104322;-75
2023/06/11 10:23:43;;;;;;;12.13;5.23;;;;;;;29.14;42.74;99855.42;123234;1102;104208;-76
2023/06/11 10:26:14;;;;;;;9.80;4.58;;;;;;;29.20;42.97;99860.54;123361;1102;104310;-77
2023/06/11 10:28:48;;;;;;;8.93;5.20;;;;;;;29.27;42.68;99852.98;123278;1101;104344;-74
2023/06/11 10:31:29;;;;;;;9.87;4.93;;;;;;;29.30;42.75;99857.36;123142;1102;104374;-78
2023/06/11 10:34:05;;;;;;;11.97;5.13;;;;;;;29.07;42.35;99861.22;123564;1102;104346;-77
2023/06/11 10:36:39;;;;;;;13.27;5.00;;;;;;;28.91;42.32;99861.13;123475;1101;104360;-77
2023/06/11 10:39:11;;;;;;;10.43;5.20;;;;;;;28.85;42.57;99859.61;123356;1102;104251;-77
2023/06/11 10:41:44;;;;;;;10.40;5.08;;;;;;;28.73;42.01;99852.98;123504;1102;118595;-77
2023/06/11 10:44:17;;;;;;;9.57;5.10;;;;;;;28.67;42.55;99861.38;123303;1102;104335;-77
2023/06/11 10:46:54;;;;;;;8.83;4.60;;;;;;;28.51;42.06;99855.84;123334;1102;104361;-75
2023/06/11 10:49:28;;;;;;;9.53;4.60;;;;;;;28.36;41.72;99846.69;123134;1102;104270;-76
2023/06/11 10:52:03;;;;;;;8.67;4.73;;;;;;;28.46;42.14;99847.97;123201;1102;104650;-76
2023/06/11 10:54:36;;;;;;;11.73;5.07;;;;;;;28.67;41.97;99837.09;123472;1102;104249;-78
2023/06/11 10:57:08;;;;;;;8.05;5.00;;;;;;;28.93;42.25;99832.22;123525;1102;104175;-78
2023/06/11 10:59:40;;;;;;;11.03;5.00;;;;;;;28.98;42.09;99833.70;123364;1102;104341;-75
2023/06/11 11:02:15;;;;;;;8.10;5.03;;;;;;;29.05;42.12;99835.15;123699;1102;104248;-78
2023/06/11 11:04:55;;;;;;;13.17;5.17;;;;;;;28.95;42.33;99830.30;123410;1100;104313;-75
2023/06/11 11:07:34;;;;;;;9.83;5.07;;;;;;;28.78;42.02;99825.75;123755;1102;104248;-77
2023/06/11 11:10:06;;;;;;;11.60;5.20;;;;;;;28.52;41.94;99822.52;123853;1102;104460;-76
2023/06/11 11:12:40;;;;;;;8.33;4.53;;;;;;;28.46;41.78;99825.52;123600;1100;104256;-78
2023/06/11 11:15:13;;;;;;;9.70;5.23;;;;;;;28.41;42.08;99830.28;123695;1102;104222;-79
2023/06/11 11:17:45;;;;;;;12.05;4.92;;;;;;;28.43;41.98;99831.93;123743;1102;104245;-79
2023/06/11 11:20:19;;;;;;;7.35;4.58;;;;;;;28.64;42.07;99824.64;123690;1102;104351;-78
2023/06/11 11:22:54;;;;;;;10.90;4.85;;;;;;;28.78;41.93;99825.75;123696;1100;107088;-78
2023/06/11 11:25:29;;;;;;;11.70;4.90;;;;;;;28.82;41.80;99825.52;124271;1101;104315;-79
2023/06/11 11:28:01;;;;;;;9.23;5.27;;;;;;;28.76;41.21;99822.27;123634;1100;104284;-78
2023/06/11 11:30:32;;;;;;;8.20;4.90;;;;;;;28.73;41.50;99815.19;123633;1102;104326;-78
2023/06/11 11:33:04;;;;;;;11.53;5.60;;;;;;;28.63;41.35;99813.92;123658;1102;117910;-80
2023/06/11 11:35:45;;;;;;;9.67;4.93;;;;;;;28.51;41.48;99812.67;123631;1102;104443;-80
2023/06/11 11:38:17;;;;;;;7.20;5.00;;;;;;;28.40;41.82;99820.42;123767;1102;104268;-81